D/T METAR WX W/DIR W/SPE G/SPE TEMP DEWP
19/03/19 02:50 EGPO 190250Z AUTO 21005KT 9999 FEW018/// BKN026/// BKN042/// 08/07 Q1015 SSW (210°) 5.8mph 8°C 7°C
19/03/19 02:20 EGPO 190220Z AUTO 22006KT 9999 BKN004/// BKN013/// OVC019/// 08/07 Q1015 REDZ SW (220°) 6.9mph 8°C 7°C
19/03/19 01:50 EGPO 190150Z AUTO 21012KT 5000 -DZ SCT006/// BKN011/// OVC024/// 08/07 Q1016 -DZ SSW (210°) 13.8mph 8°C 7°C
19/03/19 01:20 EGPO 190120Z AUTO 20010KT 9999 SCT007/// BKN014/// OVC034/// 08/07 Q1016 SSW (200°) 11.5mph 8°C 7°C
19/03/19 00:50 EGPO 190050Z AUTO 19010KT 9999 SCT018/// BKN028/// OVC035/// 08/07 Q1016 S (190°) 11.5mph 8°C 7°C
19/03/19 00:20 EGPO 190020Z AUTO 19010KT 9999 BKN026/// OVC044/// 08/07 Q1016 S (190°) 11.5mph 8°C 7°C
18/03/19 23:50 EGPO 182350Z AUTO 20009KT 9999 SCT028/// SCT034/// OVC048/// 08/07 Q1016 SSW (200°) 10.4mph 8°C 7°C
18/03/19 23:20 EGPO 182320Z AUTO 20009KT 9999 BKN028/// BKN048/// 07/06 Q1017 SSW (200°) 10.4mph 7°C 6°C
18/03/19 22:50 EGPO 182250Z AUTO 20006KT 9999 FEW024/// 06/06 Q1017 SSW (200°) 6.9mph 6°C 6°C
18/03/19 22:20 EGPO 182220Z AUTO 22005KT 9999 SCT024/// 06/05 Q1017 SW (220°) 5.8mph 6°C 5°C
18/03/19 21:50 EGPO 182150Z AUTO 20004KT 9999 NCD 04/03 Q1017 SSW (200°) 4.6mph 4°C 3°C
18/03/19 21:20 EGPO 182120Z AUTO 19004KT 9999 FEW019/// 05/04 Q1017 S (190°) 4.6mph 5°C 4°C
18/03/19 20:50 EGPO 182050Z AUTO 22005KT 9999 SCT017/// BKN021/// 06/05 Q1017 SW (220°) 5.8mph 6°C 5°C
18/03/19 20:20 EGPO 182020Z AUTO 22005KT 9999 BKN022/// BKN027/// 05/05 Q1016 SW (220°) 5.8mph 5°C 5°C
18/03/19 19:50 EGPO 181950Z AUTO 24004KT 9999 NCD 04/04 Q1016 WSW (240°) 4.6mph 4°C 4°C
18/03/19 19:20 EGPO 181920Z 23004KT 9999 FEW016 05/04 Q1016 SW (230°) 4.6mph 5°C 4°C
18/03/19 18:50 EGPO 181850Z 23004KT 9999 FEW016 05/04 Q1016 SW (230°) 4.6mph 5°C 4°C
18/03/19 18:20 EGPO 181820Z 27004KT 9999 FEW012 SCT026 08/05 Q1016 W (270°) 4.6mph 8°C 5°C
18/03/19 17:50 EGPO 181750Z 26006KT 9999 FEW012 SCT026 09/06 Q1015 W (260°) 6.9mph 9°C 6°C
18/03/19 17:20 EGPO 181720Z 25006KT 9999 VCSH FEW012 SCT016 BKN026 09/07 Q1015 VCSH WSW (250°) 6.9mph 9°C 7°C
18/03/19 16:20 EGPO 181620Z 18008KT 9999 VCSH FEW006 SCT016 BKN026 08/07 Q1015 VCSH S (180°) 9.2mph 8°C 7°C
18/03/19 15:50 EGPO 181550Z 18011KT 9999 8000N VCSH FEW006 BKN016 08/07 Q1014 VCSH S (180°) 12.7mph 8°C 7°C
18/03/19 15:20 EGPO 181520Z 18012KT 9999 VCSH SCT012 SCT028 08/07 Q1014 VCSH S (180°) 13.8mph 8°C 7°C
18/03/19 14:50 EGPO 181450Z 18011KT 9999 VCSH SCT012 SCT028 09/07 Q1014 VCSH S (180°) 12.7mph 9°C 7°C
18/03/19 14:20 EGPO 181420Z 18011KT 9999 FEW012 BKN028 09/06 Q1014 S (180°) 12.7mph 9°C 6°C
18/03/19 13:50 EGPO 181350Z 18012KT 9999 FEW012 BKN028 08/06 Q1014 S (180°) 13.8mph 8°C 6°C
18/03/19 13:20 EGPO 181320Z 18013KT 9999 FEW012 SCT017 09/06 Q1014 S (180°) 15.0mph 9°C 6°C
18/03/19 12:50 EGPO 181250Z 18014KT 9999 FEW012 BKN017 09/06 Q1014 S (180°) 16.1mph 9°C 6°C
18/03/19 12:20 EGPO 181220Z 17014KT 9999 FEW012 BKN018 08/05 Q1013 S (170°) 16.1mph 8°C 5°C
18/03/19 11:50 EGPO 181150Z 17015KT 9999 SCT012 SCT018 08/05 Q1013 S (170°) 17.3mph 8°C 5°C
18/03/19 11:20 EGPO 181120Z 17013KT 9999 BKN012 08/05 Q1013 S (170°) 15.0mph 8°C 5°C
18/03/19 10:50 EGPO 181050Z 17012KT 9999 SCT011 BKN016 07/05 Q1013 S (170°) 13.8mph 7°C 5°C
18/03/19 10:20 EGPO 181020Z 18013KT 9999 SCT012 SCT019 07/05 Q1013 S (180°) 15.0mph 7°C 5°C
18/03/19 09:50 EGPO 180950Z 18012KT 9999 SCT010 SCT028 BKN035 07/05 Q1013 S (180°) 13.8mph 7°C 5°C
18/03/19 09:20 EGPO 180920Z 19011KT 9999 FEW011 SCT026 BKN043 07/05 Q1012 S (190°) 12.7mph 7°C 5°C
18/03/19 08:50 EGPO 180850Z 21009KT 9999 FEW013 SCT026 BKN040 06/05 Q1012 SSW (210°) 10.4mph 6°C 5°C
18/03/19 08:20 EGPO 180820Z 20006KT 9999 FEW014 SCT045 05/04 Q1012 SSW (200°) 6.9mph 5°C 4°C
18/03/19 07:50 EGPO 180750Z 21004KT 9999 FEW012 04/03 Q1012 SSW (210°) 4.6mph 4°C 3°C
18/03/19 07:20 EGPO 180720Z 22004KT 9999 FEW012 02/01 Q1012 SW (220°) 4.6mph 2°C 1°C
18/03/19 06:50 EGPO 180650Z 23004KT 9999 FEW012 SCT042 02/01 Q1011 SW (230°) 4.6mph 2°C 1°C
18/03/19 06:20 EGPO 180620Z 24005KT 9999 FEW012 SCT041 01/01 Q1011 WSW (240°) 5.8mph 1°C 1°C
18/03/19 05:50 EGPO 180550Z 23004KT 9999 FEW012 01/00 Q1011 SW (230°) 4.6mph 1°C 0°C
18/03/19 05:20 EGPO 180520Z AUTO 26003KT 9999 FEW023/// SCT034/// BKN044/// 02/01 Q1011 W (260°) 3.5mph 2°C 1°C
18/03/19 04:50 EGPO 180450Z AUTO 26007KT 9999 SCT037/// BKN044/// 02/01 Q1011 W (260°) 8.1mph 2°C 1°C
18/03/19 04:20 EGPO 180420Z AUTO 22005KT 9999 NCD 01/00 Q1011 SW (220°) 5.8mph 1°C 0°C
18/03/19 03:50 EGPO 180350Z AUTO 22004KT 9999 NCD 01/M01 Q1011 SW (220°) 4.6mph 1°C -1°C
18/03/19 03:20 EGPO 180320Z AUTO 25004KT 9999 FEW022/// SCT033/// BKN048/// 02/01 Q1011 WSW (250°) 4.6mph 2°C 1°C
18/03/19 02:50 EGPO 180250Z AUTO 25006KT 9999 BKN029/// BKN045/// 03/01 Q1011 WSW (250°) 6.9mph 3°C 1°C
18/03/19 02:20 EGPO 180220Z AUTO 26005KT 9999 BKN046/// 03/01 Q1011 W (260°) 5.8mph 3°C 1°C
18/03/19 01:50 EGPO 180150Z AUTO 24004KT 9999 NCD 03/01 Q1011 WSW (240°) 4.6mph 3°C 1°C
18/03/19 01:20 EGPO 180120Z AUTO 23006KT 9999 NCD 03/01 Q1011 SW (230°) 6.9mph 3°C 1°C
18/03/19 00:50 EGPO 180050Z AUTO 24005KT 9999 NCD 02/00 Q1011 WSW (240°) 5.8mph 2°C 0°C
18/03/19 00:20 EGPO 180020Z AUTO 24006KT 9999 NCD 02/00 Q1011 WSW (240°) 6.9mph 2°C 0°C
17/03/19 23:50 EGPO 172350Z AUTO 24006KT 9999 NCD 01/00 Q1011 WSW (240°) 6.9mph 1°C 0°C
17/03/19 23:20 EGPO 172320Z AUTO 25007KT 9999 NCD 02/00 Q1011 WSW (250°) 8.1mph 2°C 0°C
17/03/19 22:50 EGPO 172250Z AUTO 25007KT 9999 NCD 02/M00 Q1011 WSW (250°) 8.1mph 2°C 0°C
17/03/19 22:20 EGPO 172220Z AUTO VRB02KT 9999 NCD 01/M01 Q1011 N (0°) 2.3mph 1°C -1°C
17/03/19 21:50 EGPO 172150Z AUTO VRB03KT 9999 NCD 00/M02 Q1011 N (0°) 3.5mph 0°C -2°C
17/03/19 21:20 EGPO 172120Z AUTO 00000KT 9999 NCD M00/M02 Q1011 N (0°) 0°C -2°C
17/03/19 20:50 EGPO 172050Z AUTO VRB01KT 9999 NCD 00/M02 Q1010 N (0°) 1.2mph 0°C -2°C
17/03/19 20:20 EGPO 172020Z AUTO 29003KT 9999 NCD 00/M02 Q1010 WNW (290°) 3.5mph 0°C -2°C
17/03/19 19:50 EGPO 171950Z AUTO 31002KT 9999 NCD 01/M01 Q1010 NW (310°) 2.3mph 1°C -1°C
17/03/19 19:20 EGPO 171920Z AUTO VRB01KT 9999 NCD 02/M01 Q1010 N (0°) 1.2mph 2°C -1°C
17/03/19 18:50 EGPO 171850Z AUTO 35004KT 9999 NCD 02/M01 Q1009 N (350°) 4.6mph 2°C -1°C
17/03/19 18:20 EGPO 171820Z AUTO 34005KT 9999 FEW047/// 03/M01 Q1009 NNW (340°) 5.8mph 3°C -1°C
17/03/19 17:50 EGPO 171750Z AUTO 35009KT 9999 NCD 05/M00 Q1009 N (350°) 10.4mph 5°C 0°C
17/03/19 17:20 EGPO 171720Z 34010KT 9999 VCSH FEW022 06/00 Q1008 VCSH NNW (340°) 11.5mph 6°C 0°C
17/03/19 16:20 EGPO 171620Z 35015KT 9999 VCSH FEW022 SCT045 07/00 Q1007 VCSH N (350°) 17.3mph 7°C 0°C
17/03/19 15:50 EGPO 171550Z 35019KT 9999 VCSH FEW021CB SCT032 07/M00 Q1006 VCSH N (350°) 21.9mph 7°C 0°C
17/03/19 15:20 EGPO 171520Z 35021KT 9999 VCSH FEW021CB SCT032 08/M00 Q1006 VCSH N (350°) 24.2mph 8°C 0°C
17/03/19 14:50 EGPO 171450Z 35020KT 9999 VCSH FEW021CB SCT032 07/00 Q1005 VCSH N (350°) 23.0mph 7°C 0°C
17/03/19 14:20 EGPO 171420Z 35022KT 9999 VCSH FEW021CB FEW032 08/00 Q1005 VCSH N (350°) 25.3mph 8°C 0°C
17/03/19 13:50 EGPO 171350Z 35021KT 9999 VCSH FEW012 FEW021CB 08/01 Q1004 VCSH N (350°) 24.2mph 8°C 1°C
17/03/19 13:20 EGPO 171320Z 35022G32KT 9999 VCSH FEW012 FEW021CB 08/01 Q1003 VCSH N (350°) 25.3mph 36.8mph 8°C 1°C
17/03/19 12:20 EGPO 171220Z 36017KT 9999 VCSH FEW012 FEW021CB 08/02 Q1002 VCSH N (360°) 19.6mph 8°C 2°C
17/03/19 11:50 EGPO 171150Z 36020KT 9999 VCSH FEW012 FEW021CB 08/02 Q1001 VCSH N (360°) 23.0mph 8°C 2°C
17/03/19 10:50 EGPO 171050Z 36014KT 9999 VCSH FEW012 FEW021CB 05/02 Q1000 VCSH N (360°) 16.1mph 5°C 2°C
17/03/19 10:20 EGPO 171020Z AUTO 36018KT 9999 NCD 07/03 Q0998 N (360°) 20.7mph 7°C 3°C
17/03/19 09:50 EGPO 170950Z AUTO 01017KT 9999 FEW022/// SCT043/// 06/04 Q0998 N (10°) 19.6mph 6°C 4°C
17/03/19 09:20 EGPO 170920Z AUTO 35015KT 9999 FEW047/// 06/03 Q0997 N (350°) 17.3mph 6°C 3°C
17/03/19 08:20 EGPO 170820Z AUTO 36015KT 9999 -RA SCT021/// BKN035/// BKN048/// 05/03 Q0995 RERA -RA N (360°) 17.3mph 5°C 3°C
17/03/19 07:50 EGPO 170750Z AUTO 35015G27KT 4900 RA FEW007/// SCT021/// 04/03 Q0994 RA N (350°) 17.3mph 31.1mph 4°C 3°C
17/03/19 07:20 EGPO 170720Z AUTO 33013KT 9999 SCT024/// 04/02 Q0993 NNW (330°) 15.0mph 4°C 2°C
17/03/19 06:50 EGPO 170650Z AUTO 32011KT 9999 FEW030/// 03/01 Q0992 NW (320°) 12.7mph 3°C 1°C
17/03/19 06:20 EGPO 170620Z AUTO 31007KT 9999 FEW034/// 03/01 Q0991 NW (310°) 8.1mph 3°C 1°C
17/03/19 05:50 EGPO 170550Z AUTO 30007KT 9999 NCD 03/02 Q0991 WNW (300°) 8.1mph 3°C 2°C
17/03/19 05:20 EGPO 170520Z AUTO 33004KT 300V010 9999 SCT015/// BKN023/// BKN038/// 03/02 Q0990 NNW (330°) 4.6mph 3°C 2°C
17/03/19 04:50 EGPO 170450Z AUTO 33008KT 9999 -RA FEW019/// BKN027/// BKN039/// 03/01 Q0990 RERA -RA NNW (330°) 9.2mph 3°C 1°C
17/03/19 04:20 EGPO 170420Z AUTO 30009KT 9999 SCT021/// 03/02 Q0989 WNW (300°) 10.4mph 3°C 2°C
17/03/19 03:20 EGPO 170320Z AUTO 30010KT 6000 -RA SCT010/// BKN021/// BKN033/// 04/02 Q0989 -RA WNW (300°) 11.5mph 4°C 2°C
17/03/19 02:50 EGPO 170250Z AUTO 32017KT 4700 -RA SCT014/// BKN021/// 03/01 Q0989 RERA -RA NW (320°) 19.6mph 3°C 1°C
17/03/19 02:20 EGPO 170220Z AUTO 29016KT 9999 -RA SCT022/// SCT034/// 04/02 Q0988 RERA -RA WNW (290°) 18.4mph 4°C 2°C
17/03/19 01:50 EGPO 170150Z AUTO 30011KT 9999 SCT028/// SCT039/// BKN046/// 04/01 Q0988 WNW (300°) 12.7mph 4°C 1°C
17/03/19 01:20 EGPO 170120Z AUTO 28008KT 9999 FEW014/// SCT021/// BKN045/// 03/01 Q0988 W (280°) 9.2mph 3°C 1°C
17/03/19 00:50 EGPO 170050Z AUTO 28013KT 9999 FEW026/// 04/00 Q0988 W (280°) 15.0mph 4°C 0°C
17/03/19 00:20 EGPO 170020Z AUTO 29013KT 9999 FEW029/// SCT040/// 03/01 Q0988 WNW (290°) 15.0mph 3°C 1°C
16/03/19 23:50 EGPO 162350Z AUTO 29013KT 9999 FEW030/// 03/00 Q0987 WNW (290°) 15.0mph 3°C 0°C
16/03/19 23:20 EGPO 162320Z AUTO 29012KT 9999 FEW049/// 03/00 Q0987 WNW (290°) 13.8mph 3°C 0°C
16/03/19 22:50 EGPO 162250Z AUTO 30006KT 9999 FEW033/// 03/01 Q0988 WNW (300°) 6.9mph 3°C 1°C
16/03/19 22:20 EGPO 162220Z AUTO 32010KT 9999 FEW027/// SCT041/// 03/01 Q0988 NW (320°) 11.5mph 3°C 1°C
16/03/19 21:50 EGPO 162150Z AUTO 29008KT 9999 NCD 02/M00 Q0987 WNW (290°) 9.2mph 2°C 0°C
16/03/19 21:20 EGPO 162120Z AUTO 29008KT 9999 NCD 02/00 Q0987 WNW (290°) 9.2mph 2°C 0°C
16/03/19 20:50 EGPO 162050Z AUTO 30009KT 9999 FEW031/// SCT044/// 02/00 Q0987 WNW (300°) 10.4mph 2°C 0°C
16/03/19 20:20 EGPO 162020Z AUTO 27006KT 9999 FEW032/// SCT040/// 02/M00 Q0987 W (270°) 6.9mph 2°C 0°C
16/03/19 19:50 EGPO 161950Z AUTO 32015G25KT 6000 -RA SCT007/// SCT024/// 02/01 Q0987 -RA NW (320°) 17.3mph 28.8mph 2°C 1°C
16/03/19 19:20 EGPO 161920Z AUTO 32007KT 9999 FEW008/// SCT025/// 02/M00 Q0987 RERA NW (320°) 8.1mph 2°C 0°C
16/03/19 18:50 EGPO 161850Z AUTO 30011KT 260V340 5000 -RA FEW008/// BKN022/// BKN042/// 03/01 Q0987 -RA WNW (300°) 12.7mph 3°C 1°C
16/03/19 18:20 EGPO 161820Z AUTO 30014KT 8000 -SN SCT006/// BKN018/// 02/01 Q0987 -SN WNW (300°) 16.1mph 2°C 1°C
16/03/19 17:50 EGPO 161750Z AUTO 26007KT 9999 NCD 03/01 Q0987 W (260°) 8.1mph 3°C 1°C
16/03/19 17:20 EGPO 161720Z AUTO 29005KT 9999 FEW009/// SCT019/// BKN038/// 02/01 Q0986 WNW (290°) 5.8mph 2°C 1°C
16/03/19 16:50 EGPO 161650Z AUTO 29012KT 9999 SCT011/// SCT015/// BKN021/// 03/01 Q0987 WNW (290°) 13.8mph 3°C 1°C
16/03/19 16:20 EGPO 161620Z 30004KT 9999 VCSH FEW007 FEW018CB 04/02 Q0987 VCSH WNW (300°) 4.6mph 4°C 2°C
16/03/19 15:50 EGPO 161550Z VRB03KT 9999 VCSH FEW008 FEW018CB 04/02 Q0986 VCSH N (0°) 3.5mph 4°C 2°C
16/03/19 15:20 EGPO 161520Z 34006KT 9999 VCSH FEW008 FEW018CB BKN040 03/02 Q0987 VCSH NNW (340°) 6.9mph 3°C 2°C
16/03/19 14:50 EGPO 161450Z 33010KT 9999 -SHRASN FEW008 BKN018CB 02/01 Q0987 -SHRA -SHSN NNW (330°) 11.5mph 2°C 1°C
16/03/19 14:20 EGPO 161420Z 36009KT 9999 7000NE -SHRASN FEW009 BKN018CB 02/01 Q0987 -SHRA SN N (360°) 10.4mph 2°C 1°C
16/03/19 13:50 EGPO 161350Z 15008KT 9999 VCSH FEW009 SCT018CB 04/02 Q0987 VCSH SSE (150°) 9.2mph 4°C 2°C
16/03/19 13:20 EGPO 161320Z 17008KT 9999 VCSH FEW009 SCT020 04/02 Q0987 VCSH S (170°) 9.2mph 4°C 2°C
16/03/19 12:50 EGPO 161250Z 09005KT 9999 VCSH FEW009 BKN024 05/02 Q0987 VCSH E (90°) 5.8mph 5°C 2°C
16/03/19 12:20 EGPO 161220Z VRB03KT 9999 VCSH FEW009 BKN020 05/01 Q0988 VCSH N (0°) 3.5mph 5°C 1°C
16/03/19 11:50 EGPO 161150Z VRB03KT 9999 -RA FEW009 BKN020 05/02 Q0988 -RA N (0°) 3.5mph 5°C 2°C
16/03/19 11:20 EGPO 161120Z 00000KT 9999 VCSH FEW010 FEW016CB BKN018 05/02 Q0988 VCSH N (0°) 5°C 2°C
16/03/19 10:50 EGPO 161050Z VRB02KT 9999 FEW012 FEW018CB 05/02 Q0988 N (0°) 2.3mph 5°C 2°C
16/03/19 10:20 EGPO 161020Z VRB01KT 9999 FEW012 FEW018CB 04/02 Q0989 N (0°) 1.2mph 4°C 2°C
16/03/19 09:50 EGPO 160950Z VRB01KT 9999 FEW012 04/02 Q0989 N (0°) 1.2mph 4°C 2°C
16/03/19 09:20 EGPO 160920Z VRB02KT 9999 FEW012 04/02 Q0989 N (0°) 2.3mph 4°C 2°C
16/03/19 08:50 EGPO 160850Z 25004KT 180V290 9999 FEW012 03/01 Q0990 WSW (250°) 4.6mph 3°C 1°C
16/03/19 08:20 EGPO 160820Z VRB01KT 9999 FEW010 03/01 Q0990 N (0°) 1.2mph 3°C 1°C
16/03/19 07:50 EGPO 160750Z 24006KT 9999 FEW010 02/01 Q0990 WSW (240°) 6.9mph 2°C 1°C
16/03/19 07:20 EGPO 160720Z 25005KT 9999 FEW010 FEW022CB 02/01 Q0991 WSW (250°) 5.8mph 2°C 1°C
16/03/19 06:50 EGPO 160650Z 22006KT 9999 FEW010 FEW022CB 02/00 Q0991 SW (220°) 6.9mph 2°C 0°C
16/03/19 06:20 EGPO 160620Z 25006KT 9999 FEW010 FEW022CB 02/00 Q0991 WSW (250°) 6.9mph 2°C 0°C
16/03/19 05:50 EGPO 160550Z 23007KT 9999 FEW008 FEW022CB 03/01 Q0992 SW (230°) 8.1mph 3°C 1°C
16/03/19 05:20 EGPO 160520Z AUTO 24006KT 9999 FEW033/// 02/01 Q0992 WSW (240°) 6.9mph 2°C 1°C
16/03/19 04:50 EGPO 160450Z AUTO 28012KT 7000 -RA FEW007/// SCT018/// BKN023/// 02/01 Q0993 -RA W (280°) 13.8mph 2°C 1°C
16/03/19 04:20 EGPO 160420Z AUTO 23004KT 9999 NCD 02/01 Q0993 SW (230°) 4.6mph 2°C 1°C
16/03/19 03:50 EGPO 160350Z AUTO 22004KT 9999 FEW040/// 02/01 Q0993 SW (220°) 4.6mph 2°C 1°C
16/03/19 03:20 EGPO 160320Z AUTO 19004KT 9999 FEW042/// SCT049/// 02/00 Q0994 S (190°) 4.6mph 2°C 0°C
16/03/19 02:50 EGPO 160250Z AUTO 26005KT 9999 SCT038/// 03/01 Q0994 W (260°) 5.8mph 3°C 1°C
16/03/19 02:20 EGPO 160220Z AUTO 23010KT 9999 NCD 03/01 Q0995 SW (230°) 11.5mph 3°C 1°C
16/03/19 01:50 EGPO 160150Z AUTO 23007KT 9999 NCD 03/01 Q0995 SW (230°) 8.1mph 3°C 1°C
16/03/19 01:20 EGPO 160120Z AUTO 22008KT 9999 NCD 03/01 Q0995 SW (220°) 9.2mph 3°C 1°C
16/03/19 00:50 EGPO 160050Z AUTO 24009KT 9999 FEW033/// 03/01 Q0996 WSW (240°) 10.4mph 3°C 1°C
16/03/19 00:20 EGPO 160020Z AUTO 24009KT 9999 FEW034/// SCT043/// 03/01 Q0996 WSW (240°) 10.4mph 3°C 1°C